createdAt,value
2019-02-27T00:01:17.619Z,21.70
2019-02-27T00:03:59.822Z,22.50
2019-02-27T00:06:41.815Z,22.20
2019-02-27T00:09:23.491Z,22.30
2019-02-27T00:12:05.096Z,22.10
2019-02-27T00:14:45.853Z,21.90
2019-02-27T00:17:27.317Z,23.00
2019-02-27T00:20:08.162Z,21.50
2019-02-27T00:22:50.757Z,21.40
2019-02-27T00:25:35.870Z,21.00
2019-02-27T00:28:14.248Z,21.00
2019-02-27T00:30:55.197Z,20.80
2019-02-27T00:33:34.980Z,20.90
2019-02-27T00:45:13.428Z,20.80
2019-02-27T00:48:02.072Z,20.80
2019-02-27T00:53:59.940Z,20.80
2019-02-27T00:59:24.368Z,20.80
2019-02-27T01:02:04.035Z,20.70
2019-02-27T01:04:45.712Z,20.80
2019-02-27T01:07:27.308Z,20.90
2019-02-27T01:10:11.999Z,21.20
2019-02-27T01:12:51.240Z,21.10
2019-02-27T01:15:31.333Z,20.90
2019-02-27T01:18:19.912Z,20.90
2019-02-27T01:24:07.249Z,20.70
2019-02-27T01:26:56.266Z,20.90
2019-02-27T01:29:56.542Z,20.70
2019-02-27T01:32:35.240Z,20.80
2019-02-27T01:35:24.159Z,21.30
2019-02-27T01:38:24.549Z,21.20
2019-02-27T01:41:03.169Z,21.60
2019-02-27T01:47:02.324Z,22.50
2019-02-27T01:53:12.719Z,22.50
2019-02-27T01:55:49.057Z,21.70
2019-02-27T01:58:49.544Z,21.90
2019-02-27T02:01:39.784Z,21.90
2019-02-27T02:04:11.245Z,21.80
2019-02-27T02:06:52.915Z,21.40
2019-02-27T02:09:34.408Z,21.20
2019-02-27T02:12:15.559Z,21.30
2019-02-27T02:14:57.210Z,20.80
2019-02-27T02:17:41.039Z,20.90
2019-02-27T02:20:21.631Z,20.60
2019-02-27T02:23:02.776Z,20.70
2019-02-27T02:25:44.247Z,21.60
2019-02-27T02:28:25.649Z,20.60
2019-02-27T02:31:06.824Z,20.50
2019-02-27T02:33:48.465Z,20.90
2019-02-27T02:36:29.816Z,21.00
2019-02-27T02:39:11.405Z,22.00
2019-02-27T02:41:52.794Z,21.10
2019-02-27T02:44:34.211Z,21.60
2019-02-27T02:50:41.479Z,21.60
2019-02-27T02:53:49.211Z,21.80
2019-02-27T02:57:00.220Z,21.90
2019-02-27T02:59:39.980Z,21.80
2019-02-27T03:02:23.793Z,22.80
2019-02-27T03:05:03.823Z,22.40
2019-02-27T03:07:45.686Z,22.10
2019-02-27T03:10:26.883Z,22.10
2019-02-27T03:13:07.617Z,22.60
2019-02-27T03:15:49.222Z,22.30
2019-02-27T03:18:30.927Z,22.10
2019-02-27T03:21:12.196Z,21.70
2019-02-27T03:23:53.619Z,22.70
2019-02-27T03:26:35.052Z,22.20
2019-02-27T03:29:17.273Z,22.50
2019-02-27T03:32:00.979Z,22.10
2019-02-27T03:34:48.025Z,22.50
2019-02-27T03:37:24.669Z,22.70
2019-02-27T03:40:10.773Z,22.50
2019-02-27T03:42:48.843Z,22.30
2019-02-27T03:45:31.703Z,22.00
2019-02-27T03:48:12.818Z,22.20
2019-02-27T03:50:54.325Z,21.90
2019-02-27T03:53:35.069Z,22.10
2019-02-27T03:56:16.138Z,21.90
2019-02-27T03:58:57.582Z,21.50
2019-02-27T04:01:38.365Z,21.60
2019-02-27T04:04:20.199Z,21.50
2019-02-27T04:07:01.343Z,21.50
2019-02-27T04:09:42.952Z,21.50
2019-02-27T04:12:24.176Z,21.30
2019-02-27T04:15:05.665Z,21.80
2019-02-27T04:17:51.846Z,21.20
2019-02-27T04:20:29.144Z,20.30
2019-02-27T04:23:12.487Z,20.10
2019-02-27T04:25:53.182Z,19.60
2019-02-27T04:28:34.738Z,19.80
2019-02-27T04:31:16.416Z,19.20
2019-02-27T04:33:59.912Z,19.30
2019-02-27T04:36:39.723Z,19.40
2019-02-27T04:39:20.525Z,18.40
2019-02-27T04:42:02.027Z,17.60
2019-02-27T04:44:43.606Z,17.40
2019-02-27T04:47:28.861Z,17.50
2019-02-27T04:50:06.389Z,17.30
2019-02-27T04:52:57.649Z,17.70
2019-02-27T04:58:44.332Z,16.50
2019-02-27T05:01:36.449Z,16.40
2019-02-27T05:04:35.861Z,16.50
2019-02-27T05:07:14.252Z,17.70
2019-02-27T05:10:06.925Z,16.90
2019-02-27T05:12:53.440Z,17.30
2019-02-27T05:15:42.477Z,16.90
2019-02-27T05:18:31.083Z,17.10
2019-02-27T05:24:18.495Z,17.10
2019-02-27T05:27:07.131Z,17.70
2019-02-27T05:33:04.899Z,17.00
2019-02-27T05:44:55.525Z,16.60
2019-02-27T05:47:45.808Z,16.90
2019-02-27T05:53:42.470Z,17.40
2019-02-27T05:56:31.709Z,17.80
2019-02-27T05:59:20.746Z,18.10
2019-02-27T06:02:11.017Z,17.80
2019-02-27T06:05:12.242Z,18.20
2019-02-27T06:13:53.362Z,19.00
2019-02-27T06:16:32.080Z,19.10
2019-02-27T06:19:35.114Z,19.30
2019-02-27T06:22:27.339Z,20.50
2019-02-27T06:25:01.992Z,20.60
2019-02-27T06:27:50.706Z,20.50
2019-02-27T06:30:39.695Z,20.90
2019-02-27T06:33:28.333Z,20.80
2019-02-27T06:36:17.040Z,22.30
2019-02-27T06:42:21.336Z,22.50
2019-02-27T06:48:27.020Z,21.50
2019-02-27T06:57:34.556Z,21.40
2019-02-27T07:00:06.691Z,22.20
2019-02-27T07:02:47.486Z,21.30
2019-02-27T07:05:29.166Z,22.10
2019-02-27T07:08:10.644Z,20.70
2019-02-27T07:10:52.067Z,20.90
2019-02-27T07:13:33.548Z,22.00
2019-02-27T07:16:14.924Z,21.20
2019-02-27T07:18:56.488Z,21.30
2019-02-27T07:21:37.998Z,21.70
2019-02-27T07:24:19.647Z,21.00
2019-02-27T07:27:00.688Z,21.30
2019-02-27T07:29:42.909Z,20.60
2019-02-27T07:32:24.155Z,19.90
2019-02-27T07:35:05.299Z,19.70
2019-02-27T07:37:48.087Z,19.20
2019-02-27T07:40:29.720Z,19.20
2019-02-27T07:43:11.249Z,18.50
2019-02-27T07:45:54.317Z,18.40
2019-02-27T07:48:36.023Z,18.80
2019-02-27T07:51:17.404Z,18.20
2019-02-27T07:53:58.876Z,17.70
2019-02-27T07:56:39.902Z,16.20
2019-02-27T07:59:20.537Z,16.20
2019-02-27T08:02:03.085Z,15.80
2019-02-27T08:04:44.512Z,16.10
2019-02-27T08:07:25.984Z,14.80
2019-02-27T08:10:06.048Z,14.70
2019-02-27T08:13:08.608Z,14.40
2019-02-27T08:15:45.263Z,14.30
2019-02-27T08:24:41.956Z,13.70
2019-02-27T08:27:30.895Z,13.90
2019-02-27T08:30:32.306Z,13.40
2019-02-27T08:33:10.960Z,13.10
2019-02-27T08:36:11.448Z,12.70
2019-02-27T08:42:10.776Z,12.90
2019-02-27T08:44:49.608Z,12.30
2019-02-27T08:50:29.283Z,12.30
2019-02-27T08:53:08.457Z,11.90
2019-02-27T08:58:52.644Z,11.50
2019-02-27T09:05:09.588Z,10.90
2019-02-27T09:07:46.048Z,10.90
2019-02-27T09:10:34.698Z,10.70
2019-02-27T09:13:23.358Z,10.00
2019-02-27T09:22:20.600Z,9.40
2019-02-27T09:25:09.383Z,9.10
2019-02-27T09:27:58.545Z,9.30
2019-02-27T09:30:47.109Z,9.10
2019-02-27T09:33:54.890Z,8.90
2019-02-27T09:36:43.882Z,8.40
2019-02-27T09:39:47.955Z,8.20
2019-02-27T09:42:36.171Z,8.30
2019-02-27T09:45:34.941Z,8.50
2019-02-27T09:48:15.126Z,8.50
2019-02-27T09:51:03.993Z,8.60
2019-02-27T09:54:04.770Z,8.00
2019-02-27T09:56:43.209Z,8.00
2019-02-27T09:59:44.460Z,7.90
2019-02-27T10:02:22.895Z,7.20
2019-02-27T10:05:12.483Z,7.40
2019-02-27T10:10:57.024Z,6.50
2019-02-27T10:13:45.694Z,6.40
2019-02-27T10:16:34.865Z,6.00
2019-02-27T10:19:26.873Z,5.60
2019-02-27T10:22:29.757Z,4.60
2019-02-27T10:25:08.618Z,4.00
2019-02-27T10:27:56.208Z,4.00
2019-02-27T10:30:49.559Z,3.70
2019-02-27T10:33:35.942Z,3.30
2019-02-27T10:36:24.731Z,2.90
2019-02-27T10:39:13.367Z,2.20
2019-02-27T10:42:02.612Z,2.00
2019-02-27T10:45:02.847Z,1.80
2019-02-27T10:47:41.584Z,1.30
2019-02-27T10:50:23.127Z,2.20
2019-02-27T10:53:04.546Z,1.90
2019-02-27T10:55:48.623Z,2.10
2019-02-27T10:58:28.485Z,2.10
2019-02-27T11:01:09.628Z,2.00
2019-02-27T11:03:50.555Z,1.60
2019-02-27T11:06:34.242Z,1.00
2019-02-27T11:09:15.491Z,1.00
2019-02-27T11:11:56.577Z,1.10
2019-02-27T11:14:38.187Z,1.20
2019-02-27T11:17:19.705Z,1.20
2019-02-27T11:19:59.414Z,1.50
2019-02-27T11:22:47.986Z,1.50
2019-02-27T11:28:32.150Z,1.40
2019-02-27T11:31:20.730Z,1.00
2019-02-27T11:34:09.339Z,1.00
2019-02-27T11:37:13.237Z,1.00
2019-02-27T11:42:47.855Z,1.00
2019-02-27T11:45:36.832Z,1.30
2019-02-27T11:48:17.584Z,1.40
2019-02-27T11:50:58.460Z,1.50
2019-02-27T11:53:39.942Z,1.10
2019-02-27T11:56:21.308Z,1.70
2019-02-27T11:59:02.884Z,1.00
2019-02-27T12:01:44.872Z,1.00
2019-02-27T12:04:25.918Z,1.00
2019-02-27T12:07:07.461Z,1.00
2019-02-27T12:09:49.398Z,1.00
2019-02-27T12:12:30.476Z,1.00
2019-02-27T12:15:11.252Z,1.00
2019-02-27T12:17:52.515Z,1.00
2019-02-27T12:20:34.011Z,1.00
2019-02-27T12:23:15.613Z,1.00
2019-02-27T12:25:56.623Z,1.30
2019-02-27T12:28:37.869Z,1.40
2019-02-27T12:31:18.627Z,1.00
2019-02-27T12:34:02.440Z,1.20
2019-02-27T12:36:42.446Z,1.40
2019-02-27T12:39:23.654Z,1.00
2019-02-27T12:42:07.084Z,1.20
2019-02-27T12:44:46.847Z,1.00
2019-02-27T12:47:28.482Z,1.00
2019-02-27T12:50:09.696Z,1.60
2019-02-27T12:52:49.300Z,1.70
2019-02-27T12:55:38.230Z,1.80
2019-02-27T12:58:26.809Z,1.80
2019-02-27T13:01:16.356Z,1.80
2019-02-27T13:04:20.024Z,2.00
2019-02-27T13:15:42.918Z,1.90
2019-02-27T13:18:32.680Z,2.00
2019-02-27T13:21:22.140Z,1.90
2019-02-27T13:27:08.747Z,2.10
2019-02-27T13:33:04.744Z,2.20
2019-02-27T13:35:53.525Z,2.10
2019-02-27T13:38:42.147Z,2.50
2019-02-27T13:41:45.125Z,2.90
2019-02-27T13:44:21.493Z,2.80
2019-02-27T13:47:21.771Z,2.30
2019-02-27T13:49:53.350Z,2.10
2019-02-27T13:52:34.609Z,2.00
2019-02-27T13:55:15.410Z,2.10
2019-02-27T13:57:58.868Z,2.10
2019-02-27T14:00:39.120Z,2.10
2019-02-27T14:03:19.860Z,2.20
2019-02-27T14:06:00.576Z,2.20
2019-02-27T14:08:40.840Z,2.30
2019-02-27T14:11:29.686Z,2.00
2019-02-27T14:20:14.443Z,2.70
2019-02-27T14:28:55.166Z,2.50
2019-02-27T14:34:53.213Z,2.70
2019-02-27T14:37:34.612Z,2.70
2019-02-27T14:40:16.127Z,2.50
2019-02-27T14:42:57.537Z,2.40
2019-02-27T14:45:40.705Z,2.40
2019-02-27T14:48:22.286Z,3.00
2019-02-27T14:51:07.312Z,2.40
2019-02-27T14:53:55.702Z,2.40
2019-02-27T14:56:42.868Z,2.60
2019-02-27T15:02:30.776Z,2.20
2019-02-27T15:05:19.916Z,1.70
2019-02-27T15:08:08.483Z,1.20
2019-02-27T15:10:57.439Z,1.00
2019-02-27T15:13:46.551Z,1.00
2019-02-27T15:16:35.270Z,1.00
2019-02-27T15:19:23.846Z,1.00
2019-02-27T15:22:12.476Z,1.00
2019-02-27T15:31:05.096Z,1.00
2019-02-27T15:34:11.752Z,1.00
2019-02-27T15:39:45.833Z,1.00
2019-02-27T15:42:27.408Z,1.00
2019-02-27T15:45:09.958Z,1.00
2019-02-27T15:47:51.045Z,1.00
2019-02-27T15:50:32.576Z,1.00
2019-02-27T15:53:15.025Z,1.00
2019-02-27T15:55:56.378Z,1.00
2019-02-27T15:58:37.795Z,1.00
2019-02-27T16:01:18.619Z,1.00
2019-02-27T16:04:00.453Z,1.00
2019-02-27T16:06:41.941Z,1.00
2019-02-27T16:09:23.311Z,1.00
2019-02-27T16:12:03.245Z,1.00
2019-02-27T16:14:52.336Z,1.00
2019-02-27T16:20:53.877Z,1.50
2019-02-27T16:26:27.198Z,1.80
2019-02-27T16:29:16.588Z,1.60
2019-02-27T16:35:14.387Z,2.30
2019-02-27T16:38:03.038Z,2.70
2019-02-27T16:43:50.699Z,3.00
2019-02-27T16:49:34.595Z,3.30
2019-02-27T16:52:23.182Z,3.40
2019-02-27T16:58:32.810Z,3.70
2019-02-27T17:01:18.941Z,4.00
2019-02-27T17:04:07.851Z,4.00
2019-02-27T17:06:56.425Z,4.40
2019-02-27T17:09:45.250Z,4.60
2019-02-27T17:12:46.028Z,4.60
2019-02-27T17:15:16.794Z,4.80
2019-02-27T17:17:58.061Z,5.00
2019-02-27T17:20:38.766Z,5.50
2019-02-27T17:23:18.527Z,5.80
2019-02-27T17:26:07.525Z,6.10
2019-02-27T17:29:07.908Z,6.30
2019-02-27T17:31:49.389Z,7.00
2019-02-27T17:34:50.744Z,7.40
2019-02-27T17:37:27.462Z,7.70
2019-02-27T17:43:28.520Z,8.50
2019-02-27T17:46:14.364Z,8.70
2019-02-27T17:49:03.217Z,8.60
2019-02-27T17:51:52.084Z,8.70
2019-02-27T17:57:34.774Z,9.10
2019-02-27T18:00:44.370Z,9.50
2019-02-27T18:03:48.448Z,9.70
2019-02-27T18:06:25.621Z,10.00
2019-02-27T18:09:14.430Z,10.20
2019-02-27T18:14:55.449Z,10.60
2019-02-27T18:17:36.986Z,10.90
2019-02-27T18:20:17.785Z,10.90
2019-02-27T18:22:59.088Z,10.90
2019-02-27T18:25:42.081Z,11.20
2019-02-27T18:28:23.834Z,11.40
2019-02-27T18:31:05.467Z,11.50
2019-02-27T18:33:49.449Z,11.70
2019-02-27T18:36:29.135Z,12.00
2019-02-27T18:39:09.922Z,12.30
2019-02-27T18:41:51.832Z,12.60
2019-02-27T18:44:33.477Z,12.70
2019-02-27T18:47:14.686Z,12.90
2019-02-27T18:49:54.366Z,13.30
2019-02-27T18:52:42.929Z,13.30
2019-02-27T18:58:26.926Z,13.80
2019-02-27T19:04:28.799Z,14.00
2019-02-27T19:10:06.537Z,14.60
2019-02-27T19:12:46.354Z,14.90
2019-02-27T19:15:27.771Z,14.90
2019-02-27T19:18:09.260Z,15.20
2019-02-27T19:20:50.130Z,15.70
2019-02-27T19:23:30.926Z,15.70
2019-02-27T19:26:13.176Z,15.60
2019-02-27T19:28:59.305Z,15.60
2019-02-27T19:31:37.387Z,15.60
2019-02-27T19:34:18.616Z,15.70
2019-02-27T19:36:58.455Z,15.50
2019-02-27T19:39:46.996Z,15.50
2019-02-27T19:42:49.920Z,15.90
2019-02-27T19:48:35.842Z,15.80
2019-02-27T19:54:33.720Z,16.00
2019-02-27T19:57:22.328Z,16.40
2019-02-27T20:03:25.668Z,16.70
2019-02-27T20:06:14.740Z,16.70
2019-02-27T20:12:15.846Z,17.20
2019-02-27T20:14:56.374Z,16.90
2019-02-27T20:17:37.971Z,17.10
2019-02-27T20:20:19.471Z,17.40
2019-02-27T20:23:01.034Z,17.80
2019-02-27T20:25:44.249Z,17.60
2019-02-27T20:28:24.100Z,17.60
2019-02-27T20:31:05.677Z,17.50
2019-02-27T20:33:46.861Z,17.20
2019-02-27T20:36:30.371Z,17.30
2019-02-27T20:39:29.067Z,17.30
2019-02-27T20:45:17.302Z,17.70
2019-02-27T20:51:07.076Z,18.00
2019-02-27T20:53:44.060Z,18.20
2019-02-27T20:56:36.000Z,18.70
2019-02-27T20:59:26.042Z,18.80
2019-02-27T21:02:13.735Z,19.20
2019-02-27T21:05:02.440Z,19.20
2019-02-27T21:07:51.228Z,19.10
2019-02-27T21:10:39.877Z,19.60
2019-02-27T21:13:20.928Z,19.90
2019-02-27T21:16:04.339Z,20.00
2019-02-27T21:18:45.613Z,20.00
2019-02-27T21:21:27.160Z,20.20
2019-02-27T21:24:08.656Z,20.30
2019-02-27T21:26:49.807Z,20.00
2019-02-27T21:29:29.607Z,18.80
2019-02-27T21:32:18.185Z,19.30
2019-02-27T21:35:19.022Z,18.50
2019-02-27T21:37:57.609Z,19.10
2019-02-27T21:46:54.282Z,18.60
2019-02-27T21:49:42.959Z,18.90
2019-02-27T21:58:48.266Z,18.10
2019-02-27T22:04:36.176Z,18.90
2019-02-27T22:07:24.916Z,18.90
2019-02-27T22:10:19.047Z,18.70
2019-02-27T22:13:09.571Z,17.50
2019-02-27T22:18:53.326Z,17.50
2019-02-27T22:24:52.232Z,15.90
2019-02-27T22:27:43.214Z,15.40
2019-02-27T22:30:32.685Z,15.60
2019-02-27T22:36:45.826Z,14.70
2019-02-27T22:39:36.351Z,14.70
2019-02-27T22:42:14.761Z,15.20
2019-02-27T22:45:15.559Z,15.80
2019-02-27T22:47:54.700Z,15.90
2019-02-27T22:53:40.086Z,17.80
2019-02-27T22:56:28.775Z,19.00
2019-02-27T22:59:17.400Z,19.30
2019-02-27T23:02:06.118Z,19.60
2019-02-27T23:05:06.550Z,20.10
2019-02-27T23:07:44.993Z,20.20
2019-02-27T23:13:24.889Z,20.60
2019-02-27T23:16:06.364Z,20.80
2019-02-27T23:18:47.550Z,21.20
2019-02-27T23:21:27.366Z,21.20
2019-02-27T23:24:28.975Z,21.40
2019-02-27T23:30:15.886Z,21.60
2019-02-27T23:33:03.269Z,21.80
2019-02-27T23:35:51.986Z,21.80
2019-02-27T23:44:48.599Z,22.10
2019-02-27T23:56:23.567Z,20.30
2019-02-27T23:59:12.191Z,19.80
